Time;durP1;ratioP1;P1;durP2;ratioP2;P2;SDS_P1;SDS_P2;PMS_P1;PMS_P2;Temp;Humidity;BMP_temperature;BMP_pressure;BME280_temperature;BME280_humidity;BME280_pressure;Samples;Min_cycle;Max_cycle;Signal;HPM_P1;HPM_P2
2024/02/29 00:00:50;;;;;;;57.30;20.08;;;;;;;;;;5087276;28;20036;-47
2024/02/29 00:03:17;;;;;;;69.03;20.02;;;;;;;;;;5087125;28;20233;-50
2024/02/29 00:05:44;;;;;;;70.00;20.48;;;;;;;;;;5087100;28;20224;-51
2024/02/29 00:08:11;;;;;;;59.22;18.90;;;;;;;;;;5087008;28;20023;-50
2024/02/29 00:10:37;;;;;;;50.13;18.75;;;;;;;;;;5086938;28;20024;-54
2024/02/29 00:13:05;;;;;;;63.67;19.30;;;;;;;;;;5086666;28;20309;-50
2024/02/29 00:15:32;;;;;;;44.15;17.80;;;;;;;;;;5086277;28;20304;-47
2024/02/29 00:17:58;;;;;;;55.13;18.27;;;;;;;;;;5086468;28;20024;-50
2024/02/29 00:20:25;;;;;;;47.75;17.25;;;;;;;;;;5086841;28;20039;-51
2024/02/29 00:22:51;;;;;;;36.85;17.45;;;;;;;;;;5086599;28;20130;-51
2024/02/29 00:25:18;;;;;;;48.05;18.40;;;;;;;;;;5086584;28;20260;-49
2024/02/29 00:27:45;;;;;;;49.28;18.08;;;;;;;;;;5086612;28;20016;-54
2024/02/29 00:30:12;;;;;;;41.33;17.20;;;;;;;;;;5086558;28;20055;-49
2024/02/29 00:32:38;;;;;;;37.67;17.00;;;;;;;;;;5086154;28;20017;-53
2024/02/29 00:35:05;;;;;;;36.13;16.73;;;;;;;;;;5086720;28;20028;-54
2024/02/29 00:37:32;;;;;;;85.00;20.27;;;;;;;;;;5070004;28;20093;-49
2024/02/29 00:39:58;;;;;;;37.20;16.90;;;;;;;;;;5054743;28;20040;-52
2024/02/29 00:42:25;;;;;;;36.05;16.50;;;;;;;;;;5046084;28;20041;-50
2024/02/29 00:44:51;;;;;;;43.55;17.92;;;;;;;;;;5045944;28;20041;-55
2024/02/29 00:47:18;;;;;;;38.13;17.48;;;;;;;;;;5054690;28;20083;-44
2024/02/29 00:49:44;;;;;;;93.57;19.08;;;;;;;;;;5059150;28;20016;-40
2024/02/29 00:52:11;;;;;;;38.95;16.90;;;;;;;;;;5048188;28;20017;-45
2024/02/29 00:54:37;;;;;;;70.82;19.50;;;;;;;;;;5045911;28;20017;-45
2024/02/29 00:57:04;;;;;;;81.32;18.77;;;;;;;;;;5046120;28;20074;-39
2024/02/29 00:59:31;;;;;;;48.25;17.08;;;;;;;;;;5046216;28;20036;-39
2024/02/29 01:01:57;;;;;;;48.67;18.25;;;;;;;;;;5054781;28;20028;-40
2024/02/29 01:04:24;;;;;;;37.25;17.63;;;;;;;;;;5065301;28;20021;-41
2024/02/29 01:06:51;;;;;;;36.05;17.20;;;;;;;;;;5066023;28;20100;-52
2024/02/29 01:09:19;;;;;;;36.83;17.52;;;;;;;;;;5065506;28;20021;-53
2024/02/29 01:11:48;;;;;;;35.47;16.70;;;;;;;;;;5065788;28;20028;-54
2024/02/29 01:14:14;;;;;;;41.35;17.65;;;;;;;;;;5065423;28;20021;-51
2024/02/29 01:16:41;;;;;;;34.03;17.02;;;;;;;;;;5065940;28;20036;-51
2024/02/29 01:19:08;;;;;;;37.08;17.20;;;;;;;;;;5065202;28;20025;-51
2024/02/29 01:21:34;;;;;;;40.38;17.80;;;;;;;;;;5053409;28;20071;-53
2024/02/29 01:24:01;;;;;;;34.67;17.23;;;;;;;;;;5064779;28;20242;-52
2024/02/29 01:26:27;;;;;;;34.33;17.52;;;;;;;;;;5059715;28;20375;-51
2024/02/29 01:28:54;;;;;;;33.97;17.48;;;;;;;;;;5056661;28;20335;-41
2024/02/29 01:31:21;;;;;;;42.63;18.92;;;;;;;;;;5045632;28;20310;-52
2024/02/29 01:33:47;;;;;;;40.83;17.95;;;;;;;;;;5045337;28;20025;-54
2024/02/29 01:36:14;;;;;;;37.60;17.73;;;;;;;;;;5045119;28;20030;-50
2024/02/29 01:38:40;;;;;;;40.30;18.02;;;;;;;;;;5045136;28;20051;-52
2024/02/29 01:41:07;;;;;;;38.08;19.25;;;;;;;;;;5045174;28;20033;-51
2024/02/29 01:43:33;;;;;;;35.00;18.05;;;;;;;;;;5045030;28;20218;-54
2024/02/29 01:46:06;;;;;;;36.05;18.95;;;;;;;;;;5044750;28;20101;-54
2024/02/29 01:48:33;;;;;;;37.90;18.70;;;;;;;;;;5044805;28;20036;-50
2024/02/29 01:50:59;;;;;;;31.15;18.15;;;;;;;;;;5045106;28;20026;-49
2024/02/29 01:53:26;;;;;;;49.38;18.77;;;;;;;;;;5044849;28;20017;-49
2024/02/29 01:55:53;;;;;;;36.65;18.23;;;;;;;;;;5044950;28;20048;-56
2024/02/29 01:58:19;;;;;;;36.58;17.73;;;;;;;;;;5049656;28;20025;-46
2024/02/29 02:00:46;;;;;;;66.78;20.65;;;;;;;;;;5050524;28;20029;-55
2024/02/29 02:03:13;;;;;;;46.72;18.38;;;;;;;;;;5044435;28;20077;-54
2024/02/29 02:05:39;;;;;;;32.80;17.65;;;;;;;;;;5056489;28;20024;-46
2024/02/29 02:08:06;;;;;;;33.22;17.80;;;;;;;;;;5044458;28;20024;-50
2024/02/29 02:10:33;;;;;;;155.38;25.50;;;;;;;;;;5044602;28;20021;-46
2024/02/29 02:13:00;;;;;;;41.70;17.73;;;;;;;;;;5044451;28;20078;-56
2024/02/29 02:15:26;;;;;;;58.80;20.25;;;;;;;;;;5044543;28;20025;-54
2024/02/29 02:17:53;;;;;;;46.22;18.80;;;;;;;;;;5044194;28;20208;-46
2024/02/29 02:20:20;;;;;;;38.63;17.73;;;;;;;;;;5044171;28;20321;-51
2024/02/29 02:22:47;;;;;;;38.92;18.17;;;;;;;;;;5044218;28;20084;-41
2024/02/29 02:25:14;;;;;;;40.53;18.27;;;;;;;;;;5044473;28;20025;-53
2024/02/29 02:27:40;;;;;;;47.22;18.45;;;;;;;;;;5055313;28;20217;-45
2024/02/29 02:30:07;;;;;;;38.65;18.60;;;;;;;;;;5049418;28;20198;-43
2024/02/29 02:32:37;;;;;;;39.05;17.30;;;;;;;;;;5063926;28;20019;-48
2024/02/29 02:35:04;;;;;;;29.48;17.67;;;;;;;;;;5064162;28;20209;-54
2024/02/29 02:37:31;;;;;;;26.75;17.45;;;;;;;;;;5063709;28;20021;-50
2024/02/29 02:39:58;;;;;;;27.17;16.95;;;;;;;;;;5063925;28;20025;-50
2024/02/29 02:42:25;;;;;;;30.75;17.92;;;;;;;;;;5063934;28;20067;-51
2024/02/29 02:44:52;;;;;;;26.10;17.10;;;;;;;;;;5053778;28;20037;-43
2024/02/29 02:47:21;;;;;;;29.13;17.60;;;;;;;;;;5054252;28;20053;-44
2024/02/29 02:49:48;;;;;;;28.00;16.70;;;;;;;;;;5054506;28;20025;-57
2024/02/29 02:52:14;;;;;;;29.15;16.85;;;;;;;;;;5053553;28;20025;-58
2024/02/29 02:54:41;;;;;;;27.35;17.15;;;;;;;;;;5055070;28;20309;-47
2024/02/29 02:57:08;;;;;;;26.38;16.25;;;;;;;;;;5054478;28;20029;-49
2024/02/29 02:59:34;;;;;;;30.48;16.67;;;;;;;;;;5056650;28;20013;-51
2024/02/29 03:02:01;;;;;;;26.45;16.45;;;;;;;;;;5056697;28;20220;-48
2024/02/29 03:04:27;;;;;;;26.60;16.95;;;;;;;;;;5054222;28;20028;-48
2024/02/29 03:06:54;;;;;;;28.67;16.90;;;;;;;;;;5053197;28;20029;-43
2024/02/29 03:09:20;;;;;;;27.73;16.42;;;;;;;;;;5052474;28;20020;-48
2024/02/29 03:11:48;;;;;;;25.98;16.42;;;;;;;;;;5054902;28;20077;-50
2024/02/29 03:14:15;;;;;;;29.95;17.55;;;;;;;;;;5053696;28;20056;-50
2024/02/29 03:16:42;;;;;;;25.00;16.27;;;;;;;;;;5052700;28;20293;-50
2024/02/29 03:19:08;;;;;;;23.27;16.05;;;;;;;;;;5054162;28;20021;-41
2024/02/29 03:21:35;;;;;;;27.10;16.20;;;;;;;;;;5053695;28;20142;-44
2024/02/29 03:24:01;;;;;;;29.83;16.92;;;;;;;;;;5052192;28;20028;-43
2024/02/29 03:26:28;;;;;;;25.35;16.95;;;;;;;;;;5055117;28;20045;-44
2024/02/29 03:28:55;;;;;;;50.42;18.30;;;;;;;;;;5055223;28;20084;-47
2024/02/29 03:31:21;;;;;;;27.35;16.50;;;;;;;;;;5066179;28;20063;-46
2024/02/29 03:33:48;;;;;;;29.23;16.90;;;;;;;;;;5062638;28;20032;-49
2024/02/29 03:36:14;;;;;;;26.77;16.48;;;;;;;;;;5079821;28;20071;-52
2024/02/29 03:38:41;;;;;;;30.50;17.13;;;;;;;;;;5079151;28;20212;-45
2024/02/29 03:41:07;;;;;;;30.83;16.65;;;;;;;;;;5064514;28;20194;-45
2024/02/29 03:43:37;;;;;;;25.48;16.88;;;;;;;;;;5056884;28;20076;-41
2024/02/29 03:46:04;;;;;;;25.60;17.23;;;;;;;;;;5052113;28;20052;-43
2024/02/29 03:48:30;;;;;;;25.35;16.38;;;;;;;;;;5053759;28;20025;-52
2024/02/29 03:50:57;;;;;;;27.80;16.63;;;;;;;;;;5066635;28;20024;-45
2024/02/29 03:53:24;;;;;;;23.10;16.60;;;;;;;;;;5058698;28;20021;-41
2024/02/29 03:55:51;;;;;;;23.67;16.45;;;;;;;;;;5071894;28;20035;-45
2024/02/29 03:58:17;;;;;;;28.88;16.95;;;;;;;;;;5065411;28;20025;-41
2024/02/29 04:00:44;;;;;;;25.85;16.25;;;;;;;;;;5060747;28;20021;-43
2024/02/29 04:03:10;;;;;;;26.92;16.83;;;;;;;;;;5055786;28;20021;-42
2024/02/29 04:05:37;;;;;;;26.50;17.08;;;;;;;;;;5065611;28;20080;-43
2024/02/29 04:08:03;;;;;;;25.60;17.38;;;;;;;;;;5064698;28;20033;-44
2024/02/29 04:10:33;;;;;;;24.08;16.65;;;;;;;;;;5062109;28;20024;-44
2024/02/29 04:13:00;;;;;;;28.05;17.00;;;;;;;;;;5055683;28;20132;-48
2024/02/29 04:15:26;;;;;;;24.45;16.73;;;;;;;;;;5057175;28;20017;-45
2024/02/29 04:17:53;;;;;;;23.85;16.30;;;;;;;;;;5064613;28;20021;-41
2024/02/29 04:20:19;;;;;;;25.50;17.50;;;;;;;;;;5064981;28;20232;-43
2024/02/29 04:22:46;;;;;;;26.38;17.83;;;;;;;;;;5063841;28;20040;-44
2024/02/29 04:25:13;;;;;;;25.38;16.88;;;;;;;;;;5064547;28;20309;-42
2024/02/29 04:27:40;;;;;;;26.45;17.08;;;;;;;;;;5062248;28;20348;-48
2024/02/29 04:30:08;;;;;;;24.63;16.40;;;;;;;;;;5064555;28;20024;-42
2024/02/29 04:32:38;;;;;;;25.27;17.00;;;;;;;;;;5064404;28;20028;-50
2024/02/29 04:35:05;;;;;;;26.75;16.63;;;;;;;;;;5058016;28;20019;-52
2024/02/29 04:37:32;;;;;;;27.95;16.73;;;;;;;;;;5045417;28;20333;-51
2024/02/29 04:39:59;;;;;;;27.48;16.10;;;;;;;;;;5044523;28;20032;-53
2024/02/29 04:42:25;;;;;;;23.10;15.85;;;;;;;;;;5044561;28;20036;-52
2024/02/29 04:44:52;;;;;;;24.63;16.30;;;;;;;;;;5055831;28;20035;-47
2024/02/29 04:47:18;;;;;;;24.48;16.17;;;;;;;;;;5066023;28;20037;-48
2024/02/29 04:49:45;;;;;;;22.10;15.48;;;;;;;;;;5062760;28;20359;-51
2024/02/29 04:52:11;;;;;;;22.10;15.45;;;;;;;;;;5056233;28;20233;-57
2024/02/29 04:54:38;;;;;;;24.45;16.17;;;;;;;;;;5055734;28;20206;-41
2024/02/29 04:57:05;;;;;;;24.60;15.93;;;;;;;;;;5054471;28;20033;-53
2024/02/29 04:59:31;;;;;;;22.70;16.27;;;;;;;;;;5055082;28;20032;-47
2024/02/29 05:01:58;;;;;;;21.75;16.10;;;;;;;;;;5055556;28;20364;-42
2024/02/29 05:04:25;;;;;;;20.70;14.90;;;;;;;;;;5054356;28;20372;-40
2024/02/29 05:06:53;;;;;;;25.65;16.25;;;;;;;;;;5061995;28;20013;-43
2024/02/29 05:09:20;;;;;;;21.00;14.90;;;;;;;;;;5054792;28;20075;-48
2024/02/29 05:11:47;;;;;;;22.35;15.70;;;;;;;;;;5056559;28;20015;-50
2024/02/29 05:14:13;;;;;;;23.88;14.65;;;;;;;;;;5054725;28;20028;-41
2024/02/29 05:16:40;;;;;;;21.67;15.48;;;;;;;;;;5055085;28;20028;-50
2024/02/29 05:19:06;;;;;;;22.25;15.07;;;;;;;;;;5055895;28;20021;-45
2024/02/29 05:21:33;;;;;;;24.95;15.40;;;;;;;;;;5054973;28;20021;-42
2024/02/29 05:23:59;;;;;;;20.80;15.10;;;;;;;;;;5054623;28;20032;-49
2024/02/29 05:26:26;;;;;;;25.77;15.35;;;;;;;;;;5056120;28;20024;-43
2024/02/29 05:28:53;;;;;;;21.95;15.48;;;;;;;;;;5054370;28;20025;-41
2024/02/29 05:31:20;;;;;;;24.25;14.73;;;;;;;;;;5054919;28;20032;-44
2024/02/29 05:33:47;;;;;;;21.60;14.82;;;;;;;;;;5059817;28;20039;-52
2024/02/29 05:36:15;;;;;;;25.17;14.60;;;;;;;;;;5059480;28;20025;-47
2024/02/29 05:38:44;;;;;;;23.52;15.45;;;;;;;;;;5054880;28;20025;-43
2024/02/29 05:41:10;;;;;;;21.67;15.23;;;;;;;;;;5055886;28;20028;-52
2024/02/29 05:43:37;;;;;;;21.67;14.05;;;;;;;;;;5053892;28;20226;-43
2024/02/29 05:46:03;;;;;;;19.98;14.57;;;;;;;;;;5054302;28;20383;-46
2024/02/29 05:48:34;;;;;;;21.20;14.23;;;;;;;;;;5057954;28;20092;-47
2024/02/29 05:51:02;;;;;;;25.00;14.75;;;;;;;;;;5065095;28;20067;-43
2024/02/29 05:53:29;;;;;;;18.02;14.85;;;;;;;;;;5064712;28;20045;-46
2024/02/29 05:55:55;;;;;;;22.25;14.95;;;;;;;;;;5063132;28;20263;-50
2024/02/29 05:58:22;;;;;;;20.33;15.13;;;;;;;;;;5064815;28;20213;-42
2024/02/29 06:00:48;;;;;;;22.35;14.57;;;;;;;;;;5064979;28;20059;-45
2024/02/29 06:03:15;;;;;;;21.98;14.80;;;;;;;;;;5064498;28;20020;-49
2024/02/29 06:05:41;;;;;;;20.77;14.93;;;;;;;;;;5064696;28;20091;-54
2024/02/29 06:08:08;;;;;;;24.85;14.77;;;;;;;;;;5064942;28;20080;-52
2024/02/29 06:10:35;;;;;;;18.50;14.48;;;;;;;;;;5064431;28;20309;-48
2024/02/29 06:13:01;;;;;;;21.20;14.18;;;;;;;;;;5063977;28;20270;-53
2024/02/29 06:15:28;;;;;;;23.33;14.85;;;;;;;;;;5064607;28;20020;-53
2024/02/29 06:17:56;;;;;;;19.70;14.48;;;;;;;;;;5064121;28;20017;-56
2024/02/29 06:20:22;;;;;;;22.38;13.90;;;;;;;;;;5064494;28;20020;-52
2024/02/29 06:22:49;;;;;;;22.25;14.68;;;;;;;;;;5064317;28;20044;-51
2024/02/29 06:25:17;;;;;;;23.27;14.70;;;;;;;;;;5064216;28;20021;-52
2024/02/29 06:27:43;;;;;;;22.42;14.73;;;;;;;;;;5064136;28;20031;-49
2024/02/29 06:30:10;;;;;;;19.05;14.15;;;;;;;;;;5064181;28;20062;-49
2024/02/29 06:32:40;;;;;;;20.52;15.07;;;;;;;;;;5063952;28;20021;-55
2024/02/29 06:35:09;;;;;;;24.55;14.88;;;;;;;;;;5064101;28;20084;-55
2024/02/29 06:37:35;;;;;;;24.92;14.55;;;;;;;;;;5064241;28;20033;-54
2024/02/29 06:40:02;;;;;;;22.90;13.93;;;;;;;;;;5063959;28;20297;-51
2024/02/29 06:42:29;;;;;;;19.52;13.93;;;;;;;;;;5063950;28;20074;-45
2024/02/29 06:44:55;;;;;;;23.00;15.38;;;;;;;;;;5063748;28;20021;-51
2024/02/29 06:47:22;;;;;;;19.75;14.00;;;;;;;;;;5063914;28;20083;-54
2024/02/29 06:49:49;;;;;;;25.77;15.68;;;;;;;;;;5063900;28;20013;-54
2024/02/29 06:52:16;;;;;;;20.50;14.45;;;;;;;;;;5063791;28;20044;-55
2024/02/29 06:54:44;;;;;;;22.85;15.15;;;;;;;;;;5063673;28;20332;-60
2024/02/29 06:57:10;;;;;;;24.48;15.27;;;;;;;;;;5063780;28;20075;-57
2024/02/29 06:59:37;;;;;;;25.40;15.65;;;;;;;;;;5063699;28;20023;-55
2024/02/29 07:02:04;;;;;;;23.80;15.00;;;;;;;;;;5063651;28;20025;-57
2024/02/29 07:04:31;;;;;;;21.73;14.65;;;;;;;;;;5063466;28;20270;-56
2024/02/29 07:06:57;;;;;;;21.85;14.93;;;;;;;;;;5063689;28;20296;-53
2024/02/29 07:09:24;;;;;;;23.33;14.45;;;;;;;;;;5063631;28;20016;-56
2024/02/29 07:11:50;;;;;;;20.80;14.63;;;;;;;;;;5064125;28;20102;-54
2024/02/29 07:14:17;;;;;;;21.88;15.00;;;;;;;;;;5055023;28;20043;-56
2024/02/29 07:16:45;;;;;;;21.05;13.95;;;;;;;;;;5044074;28;20306;-55
2024/02/29 07:19:12;;;;;;;21.48;14.10;;;;;;;;;;5043638;28;20325;-56
2024/02/29 07:21:38;;;;;;;21.10;14.43;;;;;;;;;;5044109;28;20021;-54
2024/02/29 07:24:05;;;;;;;19.77;14.18;;;;;;;;;;5046111;28;20025;-42
2024/02/29 07:26:32;;;;;;;21.65;14.63;;;;;;;;;;5047963;28;20029;-44
2024/02/29 07:28:58;;;;;;;22.77;13.77;;;;;;;;;;5047575;28;20048;-44
2024/02/29 07:31:26;;;;;;;21.75;14.32;;;;;;;;;;5047877;28;20025;-45
2024/02/29 07:33:53;;;;;;;20.23;14.15;;;;;;;;;;5047651;28;20158;-52
2024/02/29 07:36:20;;;;;;;20.50;14.48;;;;;;;;;;5047751;28;20021;-53
2024/02/29 07:38:46;;;;;;;19.58;14.13;;;;;;;;;;5047357;28;20281;-43
2024/02/29 07:41:13;;;;;;;21.60;14.40;;;;;;;;;;5047518;28;20036;-46
2024/02/29 07:43:40;;;;;;;21.05;13.75;;;;;;;;;;5047253;28;20317;-49
2024/02/29 07:46:06;;;;;;;20.25;14.15;;;;;;;;;;5047096;28;20046;-50
2024/02/29 07:48:33;;;;;;;20.13;14.02;;;;;;;;;;5047010;28;20029;-49
2024/02/29 07:51:00;;;;;;;21.83;14.10;;;;;;;;;;5053479;28;20088;-51
2024/02/29 07:53:28;;;;;;;20.73;14.18;;;;;;;;;;5051742;28;20021;-54
2024/02/29 07:55:54;;;;;;;20.70;14.98;;;;;;;;;;5047117;28;20257;-52
2024/02/29 07:58:21;;;;;;;19.73;14.10;;;;;;;;;;5047275;28;20245;-52
2024/02/29 08:00:47;;;;;;;20.90;14.68;;;;;;;;;;5047147;28;20340;-55
2024/02/29 08:03:14;;;;;;;22.25;13.55;;;;;;;;;;5046662;28;20045;-43
2024/02/29 08:05:41;;;;;;;20.42;13.52;;;;;;;;;;5047029;28;20048;-51
2024/02/29 08:08:07;;;;;;;24.23;13.73;;;;;;;;;;5047100;28;20022;-53
2024/02/29 08:10:34;;;;;;;21.25;13.95;;;;;;;;;;5046743;28;20021;-42
2024/02/29 08:13:01;;;;;;;19.30;13.90;;;;;;;;;;5046677;28;20191;-49
2024/02/29 08:15:27;;;;;;;20.17;13.85;;;;;;;;;;5046797;28;20028;-44
2024/02/29 08:17:54;;;;;;;19.55;13.73;;;;;;;;;;5046498;28;20013;-45
2024/02/29 08:20:23;;;;;;;22.27;13.57;;;;;;;;;;5046666;28;20026;-45
2024/02/29 08:22:53;;;;;;;19.23;14.38;;;;;;;;;;5047039;28;20242;-46
2024/02/29 08:25:23;;;;;;;18.80;13.63;;;;;;;;;;5046418;28;20298;-48
2024/02/29 08:27:51;;;;;;;22.55;14.20;;;;;;;;;;5046471;28;20095;-43
2024/02/29 08:30:17;;;;;;;27.13;13.93;;;;;;;;;;5046487;28;20190;-43
2024/02/29 08:32:44;;;;;;;21.23;14.18;;;;;;;;;;5046161;28;20024;-43
2024/02/29 08:35:11;;;;;;;20.48;14.10;;;;;;;;;;5045791;28;20396;-42
2024/02/29 08:37:38;;;;;;;20.88;14.00;;;;;;;;;;5046167;28;20237;-43
2024/02/29 08:40:05;;;;;;;23.95;14.32;;;;;;;;;;5046112;28;20064;-41
2024/02/29 08:42:31;;;;;;;20.95;13.90;;;;;;;;;;5046119;28;20025;-45
2024/02/29 08:44:58;;;;;;;27.95;14.18;;;;;;;;;;5046171;28;20036;-40
2024/02/29 08:47:26;;;;;;;18.48;13.68;;;;;;;;;;5046118;28;20038;-40
2024/02/29 08:49:53;;;;;;;22.17;14.02;;;;;;;;;;5046015;28;20037;-44
2024/02/29 08:52:20;;;;;;;23.13;14.35;;;;;;;;;;5045912;28;20026;-41
2024/02/29 08:54:46;;;;;;;19.85;14.10;;;;;;;;;;5045708;28;20075;-47
2024/02/29 08:57:13;;;;;;;20.30;13.88;;;;;;;;;;5046143;28;20032;-50
2024/02/29 08:59:39;;;;;;;21.65;14.00;;;;;;;;;;5046041;28;20340;-51
2024/02/29 09:02:06;;;;;;;21.65;14.45;;;;;;;;;;5045594;28;20026;-51
2024/02/29 09:04:33;;;;;;;25.73;14.18;;;;;;;;;;5045563;28;20021;-55
2024/02/29 09:07:00;;;;;;;21.80;14.88;;;;;;;;;;5046089;28;20037;-47
2024/02/29 09:09:30;;;;;;;20.92;14.40;;;;;;;;;;5045693;28;20091;-48
2024/02/29 09:11:56;;;;;;;21.60;13.27;;;;;;;;;;5045849;28;20049;-51
2024/02/29 09:14:23;;;;;;;25.92;14.48;;;;;;;;;;5045597;28;20013;-54
2024/02/29 09:16:50;;;;;;;19.77;13.75;;;;;;;;;;5045914;28;20096;-53
2024/02/29 09:19:16;;;;;;;24.38;14.48;;;;;;;;;;5045569;28;20025;-45
2024/02/29 09:21:43;;;;;;;23.98;13.77;;;;;;;;;;5046010;28;20028;-41
2024/02/29 09:24:10;;;;;;;25.40;14.52;;;;;;;;;;5045659;28;20089;-43
2024/02/29 09:26:36;;;;;;;21.58;14.40;;;;;;;;;;5046074;28;20205;-45
2024/02/29 09:29:03;;;;;;;22.20;14.00;;;;;;;;;;5045862;28;20248;-42
2024/02/29 09:31:30;;;;;;;22.33;14.15;;;;;;;;;;5046237;28;20017;-44
2024/02/29 09:33:56;;;;;;;22.80;14.10;;;;;;;;;;5045236;28;20079;-47
2024/02/29 09:36:24;;;;;;;24.77;13.90;;;;;;;;;;5045069;28;20109;-43
2024/02/29 09:38:51;;;;;;;28.90;15.18;;;;;;;;;;5045033;28;20054;-45
2024/02/29 09:41:17;;;;;;;20.88;14.63;;;;;;;;;;5045738;28;20080;-43
2024/02/29 09:43:45;;;;;;;22.13;14.98;;;;;;;;;;5045264;28;20029;-43
2024/02/29 09:46:11;;;;;;;23.13;14.93;;;;;;;;;;5044468;28;20045;-45
2024/02/29 09:48:39;;;;;;;23.73;15.10;;;;;;;;;;5044883;28;20036;-43
2024/02/29 09:51:06;;;;;;;22.50;14.50;;;;;;;;;;5045616;28;20031;-42
2024/02/29 09:53:36;;;;;;;23.13;14.20;;;;;;;;;;5044953;28;20080;-44
2024/02/29 09:56:03;;;;;;;23.95;14.35;;;;;;;;;;5045077;28;20025;-43
2024/02/29 09:58:31;;;;;;;19.55;14.48;;;;;;;;;;5044759;28;20256;-42
2024/02/29 10:00:58;;;;;;;21.88;14.02;;;;;;;;;;5045041;28;20025;-43
2024/02/29 10:03:27;;;;;;;24.02;14.43;;;;;;;;;;5044552;28;20437;-53
2024/02/29 10:05:54;;;;;;;28.60;15.15;;;;;;;;;;5045312;28;20035;-43
2024/02/29 10:08:20;;;;;;;20.77;14.27;;;;;;;;;;5044914;28;20329;-43
2024/02/29 10:10:47;;;;;;;24.38;14.77;;;;;;;;;;5045506;28;20029;-41
2024/02/29 10:13:14;;;;;;;23.23;14.55;;;;;;;;;;5044660;28;20021;-45
2024/02/29 10:15:42;;;;;;;23.42;14.07;;;;;;;;;;5044786;28;20037;-43
2024/02/29 10:18:10;;;;;;;22.13;13.80;;;;;;;;;;5044329;28;20025;-42
2024/02/29 10:20:36;;;;;;;26.13;14.63;;;;;;;;;;5044297;28;20367;-44
2024/02/29 10:23:10;;;;;;;30.65;13.73;;;;;;;;;;5044361;28;20068;-53
2024/02/29 10:25:38;;;;;;;26.42;13.93;;;;;;;;;;5044651;28;20282;-52
2024/02/29 10:28:05;;;;;;;24.77;13.70;;;;;;;;;;5044474;28;20115;-50
2024/02/29 10:30:31;;;;;;;24.63;14.43;;;;;;;;;;5044352;28;20328;-50
2024/02/29 10:32:58;;;;;;;25.90;13.90;;;;;;;;;;5044445;28;20025;-51
2024/02/29 10:35:28;;;;;;;21.92;13.90;;;;;;;;;;5044267;28;20017;-46
2024/02/29 10:37:55;;;;;;;24.40;14.73;;;;;;;;;;5043964;28;20013;-48
2024/02/29 10:40:25;;;;;;;30.70;14.40;;;;;;;;;;5044344;28;20017;-46
2024/02/29 10:42:55;;;;;;;26.95;13.68;;;;;;;;;;5044249;28;20021;-50
2024/02/29 10:45:25;;;;;;;29.73;13.90;;;;;;;;;;5043974;28;20041;-52
2024/02/29 10:48:10;;;;;;;31.48;13.95;;;;;;;;;;5044232;28;20367;-49
2024/02/29 10:50:44;;;;;;;33.97;13.45;;;;;;;;;;5044245;28;20030;-47
2024/02/29 10:53:33;;;;;;;26.40;13.77;;;;;;;;;;5044127;28;20026;-51
2024/02/29 10:56:27;;;;;;;32.58;13.98;;;;;;;;;;5033973;28;20389;-50
2024/02/29 10:59:03;;;;;;;38.33;13.68;;;;;;;;;;5042548;28;20048;-49
2024/02/29 11:01:33;;;;;;;36.38;14.55;;;;;;;;;;5044499;28;20068;-45
2024/02/29 11:03:59;;;;;;;33.28;14.50;;;;;;;;;;5043912;28;20025;-47
2024/02/29 11:06:26;;;;;;;30.67;14.10;;;;;;;;;;5043857;28;20093;-47
2024/02/29 11:08:54;;;;;;;34.65;15.68;;;;;;;;;;5044027;28;20017;-46
2024/02/29 11:11:21;;;;;;;38.80;15.52;;;;;;;;;;5044555;28;20197;-52
2024/02/29 11:13:48;;;;;;;36.72;14.75;;;;;;;;;;5043830;28;20025;-53
2024/02/29 11:16:17;;;;;;;35.97;15.80;;;;;;;;;;5044046;28;20092;-44
2024/02/29 11:18:43;;;;;;;42.58;16.88;;;;;;;;;;5043843;28;20030;-45
2024/02/29 11:21:11;;;;;;;42.85;15.40;;;;;;;;;;5043992;28;20048;-43
2024/02/29 11:23:39;;;;;;;45.97;15.48;;;;;;;;;;5043736;28;20213;-46
2024/02/29 11:26:10;;;;;;;52.85;15.95;;;;;;;;;;5044170;28;20029;-52
2024/02/29 11:28:38;;;;;;;36.70;15.07;;;;;;;;;;5054709;28;20088;-48
2024/02/29 11:31:14;;;;;;;52.08;15.43;;;;;;;;;;5051321;28;20028;-46
2024/02/29 11:33:42;;;;;;;64.05;15.43;;;;;;;;;;5072033;28;20021;-46
2024/02/29 11:36:10;;;;;;;47.58;15.45;;;;;;;;;;5063630;28;20029;-44
2024/02/29 11:38:37;;;;;;;48.78;15.00;;;;;;;;;;5063275;28;20074;-45
2024/02/29 11:41:14;;;;;;;70.35;16.73;;;;;;;;;;5063563;28;20228;-44
2024/02/29 11:43:41;;;;;;;45.08;15.15;;;;;;;;;;5063107;28;20088;-45
2024/02/29 11:46:09;;;;;;;41.60;15.38;;;;;;;;;;5062990;28;20411;-52
2024/02/29 11:48:35;;;;;;;52.08;16.83;;;;;;;;;;5063441;28;20041;-44
2024/02/29 11:51:03;;;;;;;42.03;16.60;;;;;;;;;;5063210;28;20025;-47
2024/02/29 11:53:32;;;;;;;28.55;15.77;;;;;;;;;;5063498;28;20044;-43
2024/02/29 11:55:59;;;;;;;35.38;16.73;;;;;;;;;;5063415;28;20372;-45
2024/02/29 11:58:26;;;;;;;23.75;15.52;;;;;;;;;;5063166;28;20052;-43
2024/02/29 12:00:54;;;;;;;35.63;17.17;;;;;;;;;;5063350;28;20056;-46
2024/02/29 12:03:21;;;;;;;28.77;15.90;;;;;;;;;;5062962;28;20056;-46
2024/02/29 12:05:47;;;;;;;31.23;15.02;;;;;;;;;;5063166;28;20020;-47
2024/02/29 12:08:14;;;;;;;28.85;15.43;;;;;;;;;;5063186;28;20318;-42
2024/02/29 12:10:41;;;;;;;36.58;15.10;;;;;;;;;;5064913;28;20080;-46
2024/02/29 12:13:08;;;;;;;25.75;15.20;;;;;;;;;;5066816;28;20021;-43
2024/02/29 12:15:35;;;;;;;27.98;14.95;;;;;;;;;;5066911;28;20266;-45
2024/02/29 12:18:01;;;;;;;45.90;17.10;;;;;;;;;;5066491;28;20283;-44
2024/02/29 12:20:28;;;;;;;39.70;16.35;;;;;;;;;;5066808;28;20363;-47
2024/02/29 12:23:00;;;;;;;39.13;17.00;;;;;;;;;;5066617;28;20017;-49
2024/02/29 12:25:27;;;;;;;42.92;16.75;;;;;;;;;;5066834;28;20025;-48
2024/02/29 12:27:54;;;;;;;35.50;16.00;;;;;;;;;;5066034;28;20217;-45
2024/02/29 12:30:21;;;;;;;33.05;15.68;;;;;;;;;;5065873;28;20021;-49
2024/02/29 12:32:52;;;;;;;35.95;16.20;;;;;;;;;;5067183;28;20470;-50
2024/02/29 12:35:19;;;;;;;40.35;16.98;;;;;;;;;;5066661;28;20024;-45
2024/02/29 12:37:46;;;;;;;31.38;16.35;;;;;;;;;;5066222;28;20118;-49
2024/02/29 12:40:13;;;;;;;32.80;16.23;;;;;;;;;;5065242;28;20308;-52
2024/02/29 12:42:41;;;;;;;32.13;16.05;;;;;;;;;;5064302;28;20028;-52
2024/02/29 12:45:08;;;;;;;31.90;16.30;;;;;;;;;;5064015;28;20143;-45
2024/02/29 12:47:38;;;;;;;29.83;15.65;;;;;;;;;;5064443;28;20100;-47
2024/02/29 12:50:07;;;;;;;29.85;16.27;;;;;;;;;;5064486;28;20321;-46
2024/02/29 12:52:35;;;;;;;31.60;16.05;;;;;;;;;;5064231;28;20029;-47
2024/02/29 12:55:02;;;;;;;33.10;16.20;;;;;;;;;;5065021;28;20017;-55
2024/02/29 12:57:29;;;;;;;29.23;16.55;;;;;;;;;;5066030;28;20021;-52
2024/02/29 12:59:55;;;;;;;33.35;17.63;;;;;;;;;;5065702;28;20028;-52
2024/02/29 13:02:22;;;;;;;28.10;16.58;;;;;;;;;;5065877;28;20032;-56
2024/02/29 13:04:49;;;;;;;31.10;17.27;;;;;;;;;;5065679;28;20017;-52
2024/02/29 13:07:16;;;;;;;33.00;17.25;;;;;;;;;;5065421;28;20070;-51
2024/02/29 13:09:42;;;;;;;32.15;16.58;;;;;;;;;;5063180;28;20018;-60
2024/02/29 13:12:10;;;;;;;29.75;17.83;;;;;;;;;;5054506;28;20029;-44
2024/02/29 13:14:37;;;;;;;30.48;16.85;;;;;;;;;;5045479;28;20080;-42
2024/02/29 13:17:04;;;;;;;29.42;17.42;;;;;;;;;;5045651;28;20033;-46
2024/02/29 13:19:30;;;;;;;29.88;17.77;;;;;;;;;;5046450;28;20056;-45
2024/02/29 13:21:57;;;;;;;38.17;17.30;;;;;;;;;;5065347;28;20304;-52
2024/02/29 13:24:23;;;;;;;32.05;17.85;;;;;;;;;;5065427;28;20325;-49
2024/02/29 13:26:50;;;;;;;32.10;17.30;;;;;;;;;;5065581;28;20040;-45
2024/02/29 13:29:17;;;;;;;35.50;17.65;;;;;;;;;;5065496;28;20025;-43
2024/02/29 13:31:44;;;;;;;35.55;18.35;;;;;;;;;;5065952;28;20078;-45
2024/02/29 13:34:10;;;;;;;39.83;19.80;;;;;;;;;;5065608;28;20080;-44
2024/02/29 13:36:37;;;;;;;64.35;25.52;;;;;;;;;;5066304;28;20024;-46
2024/02/29 13:39:03;;;;;;;55.90;26.98;;;;;;;;;;5073666;28;20079;-43
2024/02/29 13:41:30;;;;;;;51.13;22.85;;;;;;;;;;5085222;28;20358;-43
2024/02/29 13:43:56;;;;;;;51.13;23.95;;;;;;;;;;5084876;28;20288;-48
2024/02/29 13:46:23;;;;;;;71.70;26.10;;;;;;;;;;5084402;28;20209;-47
2024/02/29 13:48:50;;;;;;;78.25;26.70;;;;;;;;;;5084753;28;20036;-42
2024/02/29 13:51:17;;;;;;;54.67;26.35;;;;;;;;;;5084997;28;20062;-43
2024/02/29 13:53:43;;;;;;;81.32;26.08;;;;;;;;;;5074053;28;20091;-42
2024/02/29 13:56:10;;;;;;;67.55;25.48;;;;;;;;;;5065065;28;20036;-46
2024/02/29 13:58:36;;;;;;;49.85;23.42;;;;;;;;;;5064643;28;20031;-45
2024/02/29 14:01:03;;;;;;;43.50;20.48;;;;;;;;;;5067701;28;20029;-44
2024/02/29 14:03:30;;;;;;;38.17;21.27;;;;;;;;;;5067978;28;20071;-46
2024/02/29 14:05:57;;;;;;;37.92;20.83;;;;;;;;;;5057649;28;20028;-41
2024/02/29 14:08:23;;;;;;;37.85;19.90;;;;;;;;;;5069746;28;20035;-46
2024/02/29 14:10:50;;;;;;;30.77;19.13;;;;;;;;;;5072242;28;20189;-43
2024/02/29 14:13:16;;;;;;;28.73;18.85;;;;;;;;;;5058900;28;20021;-43
2024/02/29 14:15:43;;;;;;;30.40;19.67;;;;;;;;;;5052399;28;20221;-41